createdAt,value
2023-09-16T00:03:59.207Z,4.00
2023-09-16T00:09:01.357Z,3.90
2023-09-16T00:14:03.391Z,4.10
2023-09-16T00:19:06.110Z,3.90
2023-09-16T00:24:10.884Z,4.00
2023-09-16T00:29:13.203Z,4.20
2023-09-16T00:34:15.145Z,4.60
2023-09-16T00:39:17.091Z,4.30
2023-09-16T00:44:18.938Z,3.90
2023-09-16T00:49:20.907Z,4.50
2023-09-16T00:54:22.864Z,4.30
2023-09-16T00:59:27.136Z,3.80
2023-09-16T01:04:29.063Z,3.90
2023-09-16T01:09:31.230Z,3.90
2023-09-16T01:14:34.782Z,4.10
2023-09-16T01:19:59.279Z,4.50
2023-09-16T01:25:07.922Z,4.10
2023-09-16T01:30:10.913Z,3.90
2023-09-16T01:35:16.064Z,4.10
2023-09-16T01:40:23.344Z,4.40
2023-09-16T01:45:25.286Z,4.40
2023-09-16T01:50:27.104Z,4.00
2023-09-16T01:55:32.189Z,4.30
2023-09-16T02:00:34.035Z,4.50
2023-09-16T02:05:35.936Z,4.00
2023-09-16T02:10:38.086Z,3.90
2023-09-16T02:15:40.020Z,4.20
2023-09-16T02:20:42.275Z,4.10
2023-09-16T02:25:44.210Z,4.10
2023-09-16T02:30:50.094Z,4.50
2023-09-16T02:35:51.939Z,4.10
2023-09-16T02:40:53.787Z,4.10
2023-09-16T02:45:57.395Z,4.30
2023-09-16T02:50:59.363Z,4.10
2023-09-16T02:56:01.254Z,4.10
2023-09-16T03:01:12.490Z,4.40
2023-09-16T03:06:16.768Z,4.20
2023-09-16T03:11:19.135Z,4.40
2023-09-16T03:16:24.798Z,4.50
2023-09-16T03:21:29.282Z,4.80
2023-09-16T03:26:37.815Z,4.30
2023-09-16T03:31:40.174Z,4.30
2023-09-16T03:36:46.445Z,4.30
2023-09-16T03:41:48.344Z,4.20
2023-09-16T03:46:50.524Z,4.60
2023-09-16T03:51:52.868Z,4.40
2023-09-16T03:56:55.037Z,4.70
2023-09-16T04:01:57.250Z,4.40
2023-09-16T04:06:59.481Z,4.20
2023-09-16T04:12:04.065Z,3.90
2023-09-16T04:17:05.996Z,4.40
2023-09-16T04:22:08.020Z,5.00
2023-09-16T04:27:10.102Z,4.30
2023-09-16T04:32:12.828Z,4.80
2023-09-16T04:37:15.390Z,4.90
2023-09-16T04:42:17.346Z,5.20
2023-09-16T04:47:20.739Z,4.80
2023-09-16T04:52:24.782Z,5.60
2023-09-16T04:57:27.091Z,4.80
2023-09-16T05:02:33.791Z,5.60
2023-09-16T05:07:36.276Z,5.10
2023-09-16T05:12:38.432Z,5.20
2023-09-16T05:17:41.511Z,4.90
2023-09-16T05:22:48.398Z,5.20
2023-09-16T05:27:51.283Z,5.10
2023-09-16T05:32:53.369Z,4.50
2023-09-16T05:37:55.853Z,5.20
2023-09-16T05:42:58.017Z,4.90
2023-09-16T05:48:04.702Z,4.60
2023-09-16T05:53:14.145Z,5.00
2023-09-16T05:58:16.154Z,5.10
2023-09-16T06:03:18.455Z,4.50
2023-09-16T06:08:21.071Z,5.20
2023-09-16T06:13:23.931Z,5.60
2023-09-16T06:18:28.043Z,5.30
2023-09-16T06:23:30.377Z,4.50
2023-09-16T06:28:34.565Z,4.90
2023-09-16T06:33:37.147Z,4.20
2023-09-16T06:38:39.648Z,4.50
2023-09-16T06:43:41.617Z,4.80
2023-09-16T06:48:46.632Z,4.40
2023-09-16T06:53:48.566Z,4.60
2023-09-16T06:58:51.110Z,4.30
2023-09-16T07:03:53.291Z,4.60
2023-09-16T07:08:55.136Z,4.50
2023-09-16T07:13:57.038Z,4.40
2023-09-16T07:18:58.887Z,4.70
2023-09-16T07:24:02.703Z,4.60
2023-09-16T07:29:04.590Z,5.30
2023-09-16T07:34:06.436Z,4.10
2023-09-16T07:39:08.312Z,4.80
2023-09-16T07:44:10.143Z,5.50
2023-09-16T07:49:12.034Z,5.10
2023-09-16T07:54:17.046Z,4.70
2023-09-16T07:59:21.547Z,5.00
2023-09-16T08:04:23.636Z,4.80
2023-09-16T08:09:26.108Z,4.80
2023-09-16T08:14:28.008Z,4.00
2023-09-16T08:19:32.794Z,4.10
2023-09-16T08:24:38.176Z,4.50
2023-09-16T08:29:39.975Z,4.40
2023-09-16T08:34:41.833Z,3.80
2023-09-16T08:39:44.095Z,4.20
2023-09-16T08:44:51.605Z,4.20
2023-09-16T08:49:56.732Z,4.10
2023-09-16T08:54:59.470Z,3.80
2023-09-16T09:00:02.185Z,3.50
2023-09-16T09:05:07.648Z,3.50
2023-09-16T09:10:14.036Z,3.80
2023-09-16T09:15:16.803Z,3.70
2023-09-16T09:20:24.721Z,3.70
2023-09-16T09:25:28.356Z,3.80
2023-09-16T09:30:32.710Z,3.50
2023-09-16T09:35:34.586Z,3.60
2023-09-16T09:40:36.715Z,3.60
2023-09-16T09:45:41.592Z,3.60
2023-09-16T09:50:43.507Z,3.80
2023-09-16T09:55:45.549Z,3.30
2023-09-16T10:00:48.976Z,4.20
2023-09-16T10:05:52.206Z,4.00
2023-09-16T10:10:55.533Z,3.20
2023-09-16T10:16:01.695Z,3.70
2023-09-16T10:21:03.841Z,3.80
2023-09-16T10:26:05.825Z,3.10
2023-09-16T10:31:08.174Z,3.70
2023-09-16T10:36:12.016Z,3.20
2023-09-16T10:41:17.523Z,4.00
2023-09-16T10:46:22.080Z,3.70
2023-09-16T10:51:25.961Z,3.50
2023-09-16T10:56:33.658Z,4.80
2023-09-16T11:01:41.053Z,3.80
2023-09-16T11:06:50.217Z,3.60
2023-09-16T11:11:52.960Z,3.50
2023-09-16T11:16:57.735Z,3.80
2023-09-16T11:21:59.847Z,3.80
2023-09-16T11:27:02.228Z,4.30
2023-09-16T11:32:04.401Z,3.90
2023-09-16T11:37:11.369Z,3.70
2023-09-16T11:42:14.243Z,4.00
2023-09-16T11:47:17.950Z,4.00
2023-09-16T11:52:19.785Z,3.90
2023-09-16T11:57:22.054Z,4.10
2023-09-16T12:02:24.162Z,3.50
2023-09-16T12:07:26.481Z,4.30
2023-09-16T12:12:29.176Z,3.70
2023-09-16T12:17:31.189Z,4.00
2023-09-16T12:22:33.012Z,4.10
2023-09-16T12:27:35.104Z,3.80
2023-09-16T12:32:38.050Z,3.90
2023-09-16T12:37:40.502Z,4.30
2023-09-16T12:42:43.270Z,4.00
2023-09-16T12:47:45.769Z,3.80
2023-09-16T12:52:48.687Z,3.90
2023-09-16T12:57:52.858Z,4.10
2023-09-16T13:02:54.996Z,3.80
2023-09-16T13:07:59.342Z,4.10
2023-09-16T13:13:01.791Z,3.70
2023-09-16T13:18:05.541Z,3.40
2023-09-16T13:23:10.211Z,4.00
2023-09-16T13:28:15.105Z,3.90
2023-09-16T13:33:17.376Z,3.50
2023-09-16T13:38:19.335Z,3.60
2023-09-16T13:43:21.266Z,3.80
2023-09-16T13:48:24.477Z,3.70
2023-09-16T13:53:26.789Z,3.90
2023-09-16T13:58:28.937Z,3.80
2023-09-16T14:03:31.277Z,3.90
2023-09-16T14:08:33.257Z,3.80
2023-09-16T14:13:35.234Z,3.80
2023-09-16T14:18:37.282Z,4.20
2023-09-16T14:23:39.137Z,4.40
2023-09-16T14:28:41.189Z,4.30
2023-09-16T14:33:43.140Z,4.20
2023-09-16T14:38:45.076Z,3.80
2023-09-16T14:43:46.954Z,4.30
2023-09-16T14:48:49.147Z,4.90
2023-09-16T14:53:51.745Z,4.50
2023-09-16T14:58:53.592Z,4.30
2023-09-16T15:03:55.583Z,4.30
2023-09-16T15:08:57.496Z,4.30
2023-09-16T15:13:59.359Z,4.50
2023-09-16T15:19:01.332Z,4.50
2023-09-16T15:24:03.176Z,4.70
2023-09-16T15:29:05.314Z,4.90
2023-09-16T15:34:07.175Z,5.20
2023-09-16T15:39:09.126Z,4.60
2023-09-16T15:44:11.038Z,4.30
2023-09-16T15:49:13.060Z,4.40
2023-09-16T15:54:14.974Z,4.90
2023-09-16T15:59:16.966Z,6.00
2023-09-16T16:04:19.475Z,4.30
2023-09-16T16:09:22.675Z,4.70
2023-09-16T16:14:24.707Z,4.60
2023-09-16T16:19:26.687Z,5.10
2023-09-16T16:24:28.554Z,5.40
2023-09-16T16:29:30.904Z,5.30
2023-09-16T16:34:32.799Z,5.10
2023-09-16T16:39:35.358Z,4.70
2023-09-16T16:44:37.145Z,4.40
2023-09-16T16:49:39.863Z,4.60
2023-09-16T16:54:41.806Z,4.40
2023-09-16T16:59:44.193Z,4.50
2023-09-16T17:04:46.041Z,4.40
2023-09-16T17:09:48.043Z,4.30
2023-09-16T17:14:49.933Z,4.80
2023-09-16T17:19:53.937Z,4.70
2023-09-16T17:24:55.817Z,5.10
2023-09-16T17:29:57.773Z,5.40
2023-09-16T17:35:01.001Z,5.10
2023-09-16T17:40:06.812Z,5.70
2023-09-16T17:45:09.107Z,5.60
2023-09-16T17:50:11.119Z,5.30
2023-09-16T17:55:13.702Z,5.60
2023-09-16T18:00:15.743Z,5.70
2023-09-16T18:05:20.683Z,5.80
2023-09-16T18:10:22.712Z,6.30
2023-09-16T18:15:27.447Z,4.90
2023-09-16T18:20:29.708Z,6.20
2023-09-16T18:25:32.807Z,5.90
2023-09-16T18:30:34.700Z,7.00
2023-09-16T18:35:38.846Z,6.70
2023-09-16T18:40:41.223Z,7.80
2023-09-16T18:45:43.617Z,8.10
2023-09-16T18:50:45.737Z,7.90
2023-09-16T18:55:48.046Z,7.80
2023-09-16T19:00:50.342Z,8.30
2023-09-16T19:05:52.429Z,8.10
2023-09-16T19:10:54.287Z,8.70
2023-09-16T19:15:59.940Z,8.30
2023-09-16T19:21:01.891Z,8.50
2023-09-16T19:26:04.566Z,8.60
2023-09-16T19:31:06.448Z,8.70
2023-09-16T19:36:08.332Z,8.40
2023-09-16T19:41:10.191Z,9.60
2023-09-16T19:46:12.664Z,9.00
2023-09-16T19:51:14.681Z,8.60
2023-09-16T19:56:16.774Z,8.60
2023-09-16T20:01:18.668Z,8.90
2023-09-16T20:06:20.590Z,8.60
2023-09-16T20:11:22.472Z,9.30
2023-09-16T20:16:26.220Z,9.50
2023-09-16T20:21:28.787Z,9.90
2023-09-16T20:26:31.748Z,9.10
2023-09-16T20:31:34.204Z,9.30
2023-09-16T20:36:36.372Z,9.80
2023-09-16T20:41:38.283Z,10.10
2023-09-16T20:46:41.005Z,10.60
2023-09-16T20:51:42.877Z,9.70
2023-09-16T20:56:44.735Z,10.70
2023-09-16T21:01:47.723Z,10.70
2023-09-16T21:06:51.156Z,10.70
2023-09-16T21:11:58.059Z,11.00
2023-09-16T21:16:59.960Z,10.20
2023-09-16T21:22:01.812Z,11.10
2023-09-16T21:27:04.395Z,11.80
2023-09-16T21:32:06.390Z,10.80
2023-09-16T21:37:08.531Z,11.40
2023-09-16T21:42:10.649Z,11.00
2023-09-16T21:47:17.890Z,11.40
2023-09-16T21:52:19.995Z,12.70
2023-09-16T21:57:21.796Z,11.90
2023-09-16T22:02:24.094Z,11.80
2023-09-16T22:07:26.062Z,12.40
2023-09-16T22:12:27.907Z,12.30
2023-09-16T22:17:29.727Z,13.40
2023-09-16T22:22:32.630Z,12.90
2023-09-16T22:27:38.368Z,12.40
2023-09-16T22:32:40.359Z,13.00
2023-09-16T22:37:42.800Z,13.10
2023-09-16T22:42:44.625Z,12.70
2023-09-16T22:47:46.567Z,12.70
2023-09-16T22:52:48.532Z,12.90
2023-09-16T22:57:50.437Z,13.80
2023-09-16T23:02:52.585Z,13.80
2023-09-16T23:07:55.869Z,13.00
2023-09-16T23:13:03.750Z,14.30
2023-09-16T23:18:05.796Z,13.80
2023-09-16T23:23:08.917Z,13.90
2023-09-16T23:28:10.783Z,14.20
2023-09-16T23:33:13.779Z,14.50
2023-09-16T23:38:15.657Z,14.10
2023-09-16T23:43:17.518Z,14.20
2023-09-16T23:48:19.395Z,15.10
2023-09-16T23:53:21.254Z,15.20
2023-09-16T23:58:23.121Z,14.50
